sensor_id;sensor_type;location;lat;lon;timestamp;P1;durP1;ratioP1;P2;durP2;ratioP2
30874;SDS011;17581;43.222;27.924;2023-01-13T00:01:16;4.03;;;2.67;;
30874;SDS011;17581;43.222;27.924;2023-01-13T00:03:43;2.63;;;2.33;;
30874;SDS011;17581;43.222;27.924;2023-01-13T00:06:13;10.82;;;6.10;;
30874;SDS011;17581;43.222;27.924;2023-01-13T00:08:41;9.57;;;4.00;;
30874;SDS011;17581;43.222;27.924;2023-01-13T00:11:06;3.35;;;2.65;;
30874;SDS011;17581;43.222;27.924;2023-01-13T00:13:33;1.80;;;1.50;;
30874;SDS011;17581;43.222;27.924;2023-01-13T00:16:05;1.92;;;1.60;;
30874;SDS011;17581;43.222;27.924;2023-01-13T00:18:32;2.28;;;1.30;;
30874;SDS011;17581;43.222;27.924;2023-01-13T00:21:02;2.40;;;1.65;;
30874;SDS011;17581;43.222;27.924;2023-01-13T00:23:30;1.40;;;1.30;;
30874;SDS011;17581;43.222;27.924;2023-01-13T00:25:58;2.28;;;1.83;;
30874;SDS011;17581;43.222;27.924;2023-01-13T00:28:24;1.73;;;1.60;;
30874;SDS011;17581;43.222;27.924;2023-01-13T00:30:50;3.83;;;1.98;;
30874;SDS011;17581;43.222;27.924;2023-01-13T00:33:15;2.30;;;1.65;;
30874;SDS011;17581;43.222;27.924;2023-01-13T00:35:41;2.53;;;1.45;;
30874;SDS011;17581;43.222;27.924;2023-01-13T00:38:06;2.17;;;1.90;;
30874;SDS011;17581;43.222;27.924;2023-01-13T00:40:32;2.08;;;1.52;;
30874;SDS011;17581;43.222;27.924;2023-01-13T00:42:57;1.75;;;1.60;;
30874;SDS011;17581;43.222;27.924;2023-01-13T00:45:42;1.50;;;1.40;;
30874;SDS011;17581;43.222;27.924;2023-01-13T00:48:07;1.77;;;1.55;;
30874;SDS011;17581;43.222;27.924;2023-01-13T00:50:33;1.40;;;1.30;;
30874;SDS011;17581;43.222;27.924;2023-01-13T00:52:59;1.60;;;1.38;;
30874;SDS011;17581;43.222;27.924;2023-01-13T00:55:25;1.83;;;1.55;;
30874;SDS011;17581;43.222;27.924;2023-01-13T00:57:50;2.13;;;1.70;;
30874;SDS011;17581;43.222;27.924;2023-01-13T01:00:16;2.45;;;1.70;;
30874;SDS011;17581;43.222;27.924;2023-01-13T01:02:42;2.03;;;1.77;;
30874;SDS011;17581;43.222;27.924;2023-01-13T01:05:07;2.50;;;1.77;;
30874;SDS011;17581;43.222;27.924;2023-01-13T01:07:34;1.95;;;1.70;;
30874;SDS011;17581;43.222;27.924;2023-01-13T01:09:59;2.55;;;1.40;;
30874;SDS011;17581;43.222;27.924;2023-01-13T01:12:25;1.67;;;1.27;;
30874;SDS011;17581;43.222;27.924;2023-01-13T01:14:50;2.20;;;1.40;;
30874;SDS011;17581;43.222;27.924;2023-01-13T01:17:15;1.80;;;1.50;;
30874;SDS011;17581;43.222;27.924;2023-01-13T01:19:41;1.75;;;1.63;;
30874;SDS011;17581;43.222;27.924;2023-01-13T01:22:06;2.15;;;1.90;;
30874;SDS011;17581;43.222;27.924;2023-01-13T01:24:32;1.80;;;1.70;;
30874;SDS011;17581;43.222;27.924;2023-01-13T01:26:57;3.97;;;2.20;;
30874;SDS011;17581;43.222;27.924;2023-01-13T01:29:23;1.67;;;1.58;;
30874;SDS011;17581;43.222;27.924;2023-01-13T01:31:48;2.08;;;1.52;;
30874;SDS011;17581;43.222;27.924;2023-01-13T01:34:14;2.30;;;2.08;;
30874;SDS011;17581;43.222;27.924;2023-01-13T01:36:39;2.58;;;2.10;;
30874;SDS011;17581;43.222;27.924;2023-01-13T01:39:05;2.20;;;2.00;;
30874;SDS011;17581;43.222;27.924;2023-01-13T01:41:31;2.58;;;2.38;;
30874;SDS011;17581;43.222;27.924;2023-01-13T01:44:00;2.95;;;2.60;;
30874;SDS011;17581;43.222;27.924;2023-01-13T01:46:39;3.55;;;2.40;;
30874;SDS011;17581;43.222;27.924;2023-01-13T01:49:17;2.40;;;2.17;;
30874;SDS011;17581;43.222;27.924;2023-01-13T01:51:49;3.88;;;2.15;;
30874;SDS011;17581;43.222;27.924;2023-01-13T01:54:25;5.47;;;2.63;;
30874;SDS011;17581;43.222;27.924;2023-01-13T01:56:55;3.10;;;2.72;;
30874;SDS011;17581;43.222;27.924;2023-01-13T01:59:21;3.97;;;2.95;;
30874;SDS011;17581;43.222;27.924;2023-01-13T02:01:48;6.93;;;4.38;;
30874;SDS011;17581;43.222;27.924;2023-01-13T02:04:15;4.53;;;3.05;;
30874;SDS011;17581;43.222;27.924;2023-01-13T02:06:44;6.68;;;2.83;;
30874;SDS011;17581;43.222;27.924;2023-01-13T02:09:11;4.18;;;3.15;;
30874;SDS011;17581;43.222;27.924;2023-01-13T02:11:38;3.28;;;2.60;;
30874;SDS011;17581;43.222;27.924;2023-01-13T02:14:22;5.80;;;3.28;;
30874;SDS011;17581;43.222;27.924;2023-01-13T02:17:14;3.78;;;3.20;;
30874;SDS011;17581;43.222;27.924;2023-01-13T02:25:00;3.20;;;2.73;;
30874;SDS011;17581;43.222;27.924;2023-01-13T02:31:02;4.05;;;3.28;;
30874;SDS011;17581;43.222;27.924;2023-01-13T02:36:41;5.93;;;4.05;;
30874;SDS011;17581;43.222;27.924;2023-01-13T02:41:50;5.18;;;3.65;;
30874;SDS011;17581;43.222;27.924;2023-01-13T02:47:15;3.22;;;2.67;;
30874;SDS011;17581;43.222;27.924;2023-01-13T02:49:45;4.60;;;2.63;;
30874;SDS011;17581;43.222;27.924;2023-01-13T02:58:03;3.58;;;2.90;;
30874;SDS011;17581;43.222;27.924;2023-01-13T03:00:32;3.33;;;2.50;;
30874;SDS011;17581;43.222;27.924;2023-01-13T03:03:00;2.92;;;2.42;;
30874;SDS011;17581;43.222;27.924;2023-01-13T03:05:27;4.22;;;2.80;;
30874;SDS011;17581;43.222;27.924;2023-01-13T03:10:44;3.63;;;2.63;;
30874;SDS011;17581;43.222;27.924;2023-01-13T03:24:21;3.17;;;2.35;;
30874;SDS011;17581;43.222;27.924;2023-01-13T03:27:04;2.03;;;1.70;;
30874;SDS011;17581;43.222;27.924;2023-01-13T03:29:38;3.63;;;2.38;;
30874;SDS011;17581;43.222;27.924;2023-01-13T03:32:17;2.97;;;2.42;;
30874;SDS011;17581;43.222;27.924;2023-01-13T03:34:49;3.78;;;2.88;;
30874;SDS011;17581;43.222;27.924;2023-01-13T03:37:20;2.50;;;2.30;;
30874;SDS011;17581;43.222;27.924;2023-01-13T03:39:51;2.35;;;2.15;;
30874;SDS011;17581;43.222;27.924;2023-01-13T03:42:22;2.25;;;2.05;;
30874;SDS011;17581;43.222;27.924;2023-01-13T03:44:54;2.95;;;2.33;;
30874;SDS011;17581;43.222;27.924;2023-01-13T03:47:36;3.70;;;2.28;;
30874;SDS011;17581;43.222;27.924;2023-01-13T03:50:10;1.67;;;1.58;;
30874;SDS011;17581;43.222;27.924;2023-01-13T03:52:41;1.90;;;1.70;;
30874;SDS011;17581;43.222;27.924;2023-01-13T03:55:12;2.78;;;2.22;;
30874;SDS011;17581;43.222;27.924;2023-01-13T04:00:49;2.70;;;2.50;;
30874;SDS011;17581;43.222;27.924;2023-01-13T04:03:19;5.22;;;2.30;;
30874;SDS011;17581;43.222;27.924;2023-01-13T04:05:56;1.95;;;1.80;;
30874;SDS011;17581;43.222;27.924;2023-01-13T04:08:27;2.95;;;2.25;;
30874;SDS011;17581;43.222;27.924;2023-01-13T04:10:57;4.07;;;2.65;;
30874;SDS011;17581;43.222;27.924;2023-01-13T04:13:32;3.83;;;2.83;;
30874;SDS011;17581;43.222;27.924;2023-01-13T04:16:02;3.30;;;2.58;;
30874;SDS011;17581;43.222;27.924;2023-01-13T04:18:30;4.28;;;2.95;;
30874;SDS011;17581;43.222;27.924;2023-01-13T04:20:57;4.72;;;2.95;;
30874;SDS011;17581;43.222;27.924;2023-01-13T04:23:24;3.33;;;2.65;;
30874;SDS011;17581;43.222;27.924;2023-01-13T04:25:51;2.72;;;2.42;;
30874;SDS011;17581;43.222;27.924;2023-01-13T04:28:17;3.55;;;2.70;;
30874;SDS011;17581;43.222;27.924;2023-01-13T04:30:44;4.15;;;3.22;;
30874;SDS011;17581;43.222;27.924;2023-01-13T04:33:10;5.13;;;3.78;;
30874;SDS011;17581;43.222;27.924;2023-01-13T04:35:36;6.70;;;4.55;;
30874;SDS011;17581;43.222;27.924;2023-01-13T04:38:02;6.00;;;4.63;;
30874;SDS011;17581;43.222;27.924;2023-01-13T04:40:29;8.38;;;5.40;;
30874;SDS011;17581;43.222;27.924;2023-01-13T04:42:55;5.45;;;3.63;;
30874;SDS011;17581;43.222;27.924;2023-01-13T04:45:21;7.70;;;5.15;;
30874;SDS011;17581;43.222;27.924;2023-01-13T04:47:46;10.25;;;6.63;;
30874;SDS011;17581;43.222;27.924;2023-01-13T04:50:12;11.27;;;6.93;;
30874;SDS011;17581;43.222;27.924;2023-01-13T04:52:38;6.75;;;4.13;;
30874;SDS011;17581;43.222;27.924;2023-01-13T04:55:04;8.23;;;4.15;;
30874;SDS011;17581;43.222;27.924;2023-01-13T04:57:31;7.60;;;5.13;;
30874;SDS011;17581;43.222;27.924;2023-01-13T04:59:59;5.88;;;4.32;;
30874;SDS011;17581;43.222;27.924;2023-01-13T05:02:24;5.40;;;3.67;;
30874;SDS011;17581;43.222;27.924;2023-01-13T05:04:50;5.72;;;4.10;;
30874;SDS011;17581;43.222;27.924;2023-01-13T05:07:15;5.45;;;3.67;;
30874;SDS011;17581;43.222;27.924;2023-01-13T05:09:41;5.18;;;3.75;;
30874;SDS011;17581;43.222;27.924;2023-01-13T05:12:07;5.35;;;4.43;;
30874;SDS011;17581;43.222;27.924;2023-01-13T05:14:52;5.07;;;4.00;;
30874;SDS011;17581;43.222;27.924;2023-01-13T05:17:36;7.15;;;4.45;;
30874;SDS011;17581;43.222;27.924;2023-01-13T05:20:03;6.60;;;4.95;;
30874;SDS011;17581;43.222;27.924;2023-01-13T05:22:29;7.63;;;4.68;;
30874;SDS011;17581;43.222;27.924;2023-01-13T05:25:13;4.70;;;3.75;;
30874;SDS011;17581;43.222;27.924;2023-01-13T05:27:52;6.32;;;4.28;;
30874;SDS011;17581;43.222;27.924;2023-01-13T05:30:20;5.68;;;4.13;;
30874;SDS011;17581;43.222;27.924;2023-01-13T05:32:47;5.40;;;3.55;;
30874;SDS011;17581;43.222;27.924;2023-01-13T05:35:12;4.88;;;3.65;;
30874;SDS011;17581;43.222;27.924;2023-01-13T05:37:40;7.80;;;4.72;;
30874;SDS011;17581;43.222;27.924;2023-01-13T05:40:09;6.07;;;4.50;;
30874;SDS011;17581;43.222;27.924;2023-01-13T05:43:11;10.60;;;4.18;;
30874;SDS011;17581;43.222;27.924;2023-01-13T05:45:48;5.47;;;3.72;;
30874;SDS011;17581;43.222;27.924;2023-01-13T05:48:18;6.07;;;3.75;;
30874;SDS011;17581;43.222;27.924;2023-01-13T05:50:45;6.80;;;4.72;;
30874;SDS011;17581;43.222;27.924;2023-01-13T05:53:13;7.95;;;4.40;;
30874;SDS011;17581;43.222;27.924;2023-01-13T05:55:42;6.57;;;4.72;;
30874;SDS011;17581;43.222;27.924;2023-01-13T05:58:08;6.68;;;4.57;;
30874;SDS011;17581;43.222;27.924;2023-01-13T06:00:35;10.65;;;4.70;;
30874;SDS011;17581;43.222;27.924;2023-01-13T06:03:01;6.80;;;5.03;;
30874;SDS011;17581;43.222;27.924;2023-01-13T06:05:27;9.45;;;5.25;;
30874;SDS011;17581;43.222;27.924;2023-01-13T06:07:56;9.00;;;6.32;;
30874;SDS011;17581;43.222;27.924;2023-01-13T06:10:25;10.07;;;5.63;;
30874;SDS011;17581;43.222;27.924;2023-01-13T06:12:51;12.52;;;6.97;;
30874;SDS011;17581;43.222;27.924;2023-01-13T06:15:17;7.53;;;3.85;;
30874;SDS011;17581;43.222;27.924;2023-01-13T06:17:43;7.85;;;5.47;;
30874;SDS011;17581;43.222;27.924;2023-01-13T06:20:09;12.18;;;5.82;;
30874;SDS011;17581;43.222;27.924;2023-01-13T06:22:36;8.20;;;4.90;;
30874;SDS011;17581;43.222;27.924;2023-01-13T06:25:07;10.77;;;5.70;;
30874;SDS011;17581;43.222;27.924;2023-01-13T06:27:38;8.70;;;5.25;;
30874;SDS011;17581;43.222;27.924;2023-01-13T06:30:04;10.23;;;5.93;;
30874;SDS011;17581;43.222;27.924;2023-01-13T06:32:33;8.88;;;5.75;;
30874;SDS011;17581;43.222;27.924;2023-01-13T06:35:07;10.45;;;6.35;;
30874;SDS011;17581;43.222;27.924;2023-01-13T06:37:37;9.32;;;5.82;;
30874;SDS011;17581;43.222;27.924;2023-01-13T06:40:04;8.77;;;5.88;;
30874;SDS011;17581;43.222;27.924;2023-01-13T06:42:31;14.25;;;7.30;;
30874;SDS011;17581;43.222;27.924;2023-01-13T06:45:18;12.00;;;7.30;;
30874;SDS011;17581;43.222;27.924;2023-01-13T06:47:45;11.02;;;6.28;;
30874;SDS011;17581;43.222;27.924;2023-01-13T06:50:11;12.13;;;7.28;;
30874;SDS011;17581;43.222;27.924;2023-01-13T06:52:37;14.88;;;7.82;;
30874;SDS011;17581;43.222;27.924;2023-01-13T06:55:02;15.02;;;8.40;;
30874;SDS011;17581;43.222;27.924;2023-01-13T06:57:28;9.07;;;6.03;;
30874;SDS011;17581;43.222;27.924;2023-01-13T06:59:54;12.30;;;6.88;;
30874;SDS011;17581;43.222;27.924;2023-01-13T07:02:19;10.05;;;6.78;;
30874;SDS011;17581;43.222;27.924;2023-01-13T07:04:44;11.85;;;7.05;;
30874;SDS011;17581;43.222;27.924;2023-01-13T07:07:11;13.23;;;7.43;;
30874;SDS011;17581;43.222;27.924;2023-01-13T07:09:37;11.93;;;6.68;;
30874;SDS011;17581;43.222;27.924;2023-01-13T07:12:03;14.75;;;7.95;;
30874;SDS011;17581;43.222;27.924;2023-01-13T07:14:28;13.68;;;7.55;;
30874;SDS011;17581;43.222;27.924;2023-01-13T07:17:12;13.68;;;6.75;;
30874;SDS011;17581;43.222;27.924;2023-01-13T07:19:38;14.15;;;7.72;;
30874;SDS011;17581;43.222;27.924;2023-01-13T07:22:03;12.82;;;7.72;;
30874;SDS011;17581;43.222;27.924;2023-01-13T07:24:28;10.75;;;7.50;;
30874;SDS011;17581;43.222;27.924;2023-01-13T07:26:54;9.40;;;6.05;;
30874;SDS011;17581;43.222;27.924;2023-01-13T07:29:19;9.27;;;5.88;;
30874;SDS011;17581;43.222;27.924;2023-01-13T07:31:45;10.50;;;6.65;;
30874;SDS011;17581;43.222;27.924;2023-01-13T07:34:11;10.82;;;6.35;;
30874;SDS011;17581;43.222;27.924;2023-01-13T07:36:36;11.60;;;6.82;;
30874;SDS011;17581;43.222;27.924;2023-01-13T07:39:03;11.63;;;7.05;;
30874;SDS011;17581;43.222;27.924;2023-01-13T07:41:29;8.98;;;6.78;;
30874;SDS011;17581;43.222;27.924;2023-01-13T07:44:13;7.35;;;5.72;;
30874;SDS011;17581;43.222;27.924;2023-01-13T07:46:38;9.80;;;5.75;;
30874;SDS011;17581;43.222;27.924;2023-01-13T07:49:04;7.57;;;6.07;;
30874;SDS011;17581;43.222;27.924;2023-01-13T07:51:30;8.45;;;5.43;;
30874;SDS011;17581;43.222;27.924;2023-01-13T07:53:56;7.68;;;5.25;;
30874;SDS011;17581;43.222;27.924;2023-01-13T07:56:21;9.23;;;5.28;;
30874;SDS011;17581;43.222;27.924;2023-01-13T07:58:47;12.60;;;5.43;;
30874;SDS011;17581;43.222;27.924;2023-01-13T08:01:15;11.82;;;6.20;;
30874;SDS011;17581;43.222;27.924;2023-01-13T08:03:42;9.98;;;5.25;;
30874;SDS011;17581;43.222;27.924;2023-01-13T08:06:08;7.43;;;5.25;;
30874;SDS011;17581;43.222;27.924;2023-01-13T08:08:34;8.13;;;5.80;;
30874;SDS011;17581;43.222;27.924;2023-01-13T08:11:01;10.63;;;5.68;;
30874;SDS011;17581;43.222;27.924;2023-01-13T08:13:28;14.13;;;8.00;;
30874;SDS011;17581;43.222;27.924;2023-01-13T08:15:58;12.05;;;7.55;;
30874;SDS011;17581;43.222;27.924;2023-01-13T08:18:25;15.37;;;7.63;;
30874;SDS011;17581;43.222;27.924;2023-01-13T08:20:51;9.57;;;5.95;;
30874;SDS011;17581;43.222;27.924;2023-01-13T08:23:17;9.13;;;5.65;;
30874;SDS011;17581;43.222;27.924;2023-01-13T08:25:43;10.57;;;5.50;;
30874;SDS011;17581;43.222;27.924;2023-01-13T08:28:09;8.32;;;5.28;;
30874;SDS011;17581;43.222;27.924;2023-01-13T08:30:35;16.10;;;8.70;;
30874;SDS011;17581;43.222;27.924;2023-01-13T08:33:01;9.45;;;5.95;;
30874;SDS011;17581;43.222;27.924;2023-01-13T08:35:26;8.50;;;5.88;;
30874;SDS011;17581;43.222;27.924;2023-01-13T08:37:52;7.35;;;5.63;;
30874;SDS011;17581;43.222;27.924;2023-01-13T08:40:18;10.88;;;6.55;;
30874;SDS011;17581;43.222;27.924;2023-01-13T08:42:45;10.30;;;6.70;;
30874;SDS011;17581;43.222;27.924;2023-01-13T08:45:10;10.80;;;6.93;;
30874;SDS011;17581;43.222;27.924;2023-01-13T08:47:37;12.73;;;7.57;;
30874;SDS011;17581;43.222;27.924;2023-01-13T08:50:03;13.25;;;8.38;;
30874;SDS011;17581;43.222;27.924;2023-01-13T08:52:29;17.83;;;9.63;;
30874;SDS011;17581;43.222;27.924;2023-01-13T08:54:55;12.85;;;8.45;;
30874;SDS011;17581;43.222;27.924;2023-01-13T08:57:20;15.05;;;9.35;;
30874;SDS011;17581;43.222;27.924;2023-01-13T08:59:46;14.75;;;8.55;;
30874;SDS011;17581;43.222;27.924;2023-01-13T09:02:12;16.25;;;8.65;;
30874;SDS011;17581;43.222;27.924;2023-01-13T09:04:39;16.33;;;8.05;;
30874;SDS011;17581;43.222;27.924;2023-01-13T09:07:05;13.15;;;8.43;;
30874;SDS011;17581;43.222;27.924;2023-01-13T09:09:30;13.52;;;7.55;;
30874;SDS011;17581;43.222;27.924;2023-01-13T09:11:56;19.02;;;8.48;;
30874;SDS011;17581;43.222;27.924;2023-01-13T09:14:40;15.15;;;8.82;;
30874;SDS011;17581;43.222;27.924;2023-01-13T09:17:05;19.45;;;12.13;;
30874;SDS011;17581;43.222;27.924;2023-01-13T09:19:32;19.48;;;10.88;;
30874;SDS011;17581;43.222;27.924;2023-01-13T09:21:57;11.63;;;7.82;;
30874;SDS011;17581;43.222;27.924;2023-01-13T09:24:23;15.07;;;9.40;;
30874;SDS011;17581;43.222;27.924;2023-01-13T09:26:49;15.32;;;8.95;;
30874;SDS011;17581;43.222;27.924;2023-01-13T09:29:15;15.80;;;9.07;;
30874;SDS011;17581;43.222;27.924;2023-01-13T09:31:41;12.10;;;9.07;;
30874;SDS011;17581;43.222;27.924;2023-01-13T09:34:09;15.82;;;9.80;;
30874;SDS011;17581;43.222;27.924;2023-01-13T09:36:57;21.42;;;10.35;;
30874;SDS011;17581;43.222;27.924;2023-01-13T09:39:23;13.57;;;9.30;;
30874;SDS011;17581;43.222;27.924;2023-01-13T09:41:50;13.60;;;9.77;;
30874;SDS011;17581;43.222;27.924;2023-01-13T09:44:48;17.40;;;10.55;;
30874;SDS011;17581;43.222;27.924;2023-01-13T09:49:46;22.13;;;11.68;;
30874;SDS011;17581;43.222;27.924;2023-01-13T09:52:16;17.15;;;11.35;;
30874;SDS011;17581;43.222;27.924;2023-01-13T09:57:44;15.32;;;9.25;;
30874;SDS011;17581;43.222;27.924;2023-01-13T10:00:19;15.27;;;10.25;;
30874;SDS011;17581;43.222;27.924;2023-01-13T10:05:33;16.77;;;9.00;;
30874;SDS011;17581;43.222;27.924;2023-01-13T10:08:12;15.52;;;10.38;;
30874;SDS011;17581;43.222;27.924;2023-01-13T10:10:49;14.95;;;9.13;;
30874;SDS011;17581;43.222;27.924;2023-01-13T10:13:21;16.55;;;9.30;;
30874;SDS011;17581;43.222;27.924;2023-01-13T10:21:16;14.52;;;9.05;;
30874;SDS011;17581;43.222;27.924;2023-01-13T10:23:52;18.85;;;11.30;;
30874;SDS011;17581;43.222;27.924;2023-01-13T10:28:52;13.90;;;8.93;;
30874;SDS011;17581;43.222;27.924;2023-01-13T10:33:47;13.70;;;9.93;;
30874;SDS011;17581;43.222;27.924;2023-01-13T10:36:14;17.65;;;12.25;;
30874;SDS011;17581;43.222;27.924;2023-01-13T10:41:19;19.00;;;13.23;;
30874;SDS011;17581;43.222;27.924;2023-01-13T10:44:02;20.23;;;11.40;;
30874;SDS011;17581;43.222;27.924;2023-01-13T10:46:33;18.98;;;10.82;;
30874;SDS011;17581;43.222;27.924;2023-01-13T10:49:29;19.63;;;11.10;;
30874;SDS011;17581;43.222;27.924;2023-01-13T10:51:58;22.40;;;13.32;;
30874;SDS011;17581;43.222;27.924;2023-01-13T10:54:24;18.63;;;10.77;;
30874;SDS011;17581;43.222;27.924;2023-01-13T10:57:24;21.15;;;11.15;;
30874;SDS011;17581;43.222;27.924;2023-01-13T10:59:48;18.75;;;11.95;;
30874;SDS011;17581;43.222;27.924;2023-01-13T11:02:19;17.65;;;10.30;;
30874;SDS011;17581;43.222;27.924;2023-01-13T11:20:56;13.15;;;9.13;;
30874;SDS011;17581;43.222;27.924;2023-01-13T11:23:31;13.05;;;8.10;;
30874;SDS011;17581;43.222;27.924;2023-01-13T11:26:11;11.57;;;7.47;;
30874;SDS011;17581;43.222;27.924;2023-01-13T11:31:34;15.48;;;9.63;;
30874;SDS011;17581;43.222;27.924;2023-01-13T11:34:18;15.38;;;9.32;;
30874;SDS011;17581;43.222;27.924;2023-01-13T11:36:54;18.90;;;10.45;;
30874;SDS011;17581;43.222;27.924;2023-01-13T11:39:25;18.05;;;10.65;;
30874;SDS011;17581;43.222;27.924;2023-01-13T11:45:16;16.95;;;10.55;;
30874;SDS011;17581;43.222;27.924;2023-01-13T11:47:49;19.63;;;12.68;;
30874;SDS011;17581;43.222;27.924;2023-01-13T11:50:36;21.75;;;11.68;;
30874;SDS011;17581;43.222;27.924;2023-01-13T11:53:12;20.05;;;11.57;;
30874;SDS011;17581;43.222;27.924;2023-01-13T11:58:33;16.83;;;11.10;;
30874;SDS011;17581;43.222;27.924;2023-01-13T12:01:24;20.23;;;12.75;;
30874;SDS011;17581;43.222;27.924;2023-01-13T12:07:16;27.90;;;11.52;;
30874;SDS011;17581;43.222;27.924;2023-01-13T12:09:51;17.92;;;10.38;;
30874;SDS011;17581;43.222;27.924;2023-01-13T12:12:29;17.08;;;10.13;;
30874;SDS011;17581;43.222;27.924;2023-01-13T12:20:55;27.75;;;12.80;;
30874;SDS011;17581;43.222;27.924;2023-01-13T12:26:25;25.30;;;11.82;;
30874;SDS011;17581;43.222;27.924;2023-01-13T12:31:24;33.20;;;16.92;;
30874;SDS011;17581;43.222;27.924;2023-01-13T12:36:50;25.40;;;12.45;;
30874;SDS011;17581;43.222;27.924;2023-01-13T12:42:31;23.67;;;13.25;;
30874;SDS011;17581;43.222;27.924;2023-01-13T12:45:23;20.55;;;11.70;;
30874;SDS011;17581;43.222;27.924;2023-01-13T12:47:53;18.52;;;11.38;;
30874;SDS011;17581;43.222;27.924;2023-01-13T12:52:48;21.30;;;12.05;;
30874;SDS011;17581;43.222;27.924;2023-01-13T12:55:21;23.05;;;12.63;;
30874;SDS011;17581;43.222;27.924;2023-01-13T13:00:54;26.92;;;13.18;;
30874;SDS011;17581;43.222;27.924;2023-01-13T13:03:30;28.63;;;15.90;;
30874;SDS011;17581;43.222;27.924;2023-01-13T13:08:59;20.80;;;12.30;;
30874;SDS011;17581;43.222;27.924;2023-01-13T13:19:44;26.80;;;14.82;;
30874;SDS011;17581;43.222;27.924;2023-01-13T13:24:38;35.13;;;17.15;;
30874;SDS011;17581;43.222;27.924;2023-01-13T13:30:10;37.83;;;17.25;;
30874;SDS011;17581;43.222;27.924;2023-01-13T13:35:53;26.23;;;12.57;;
30874;SDS011;17581;43.222;27.924;2023-01-13T13:41:46;25.10;;;13.50;;
30874;SDS011;17581;43.222;27.924;2023-01-13T13:44:35;30.27;;;14.93;;
30874;SDS011;17581;43.222;27.924;2023-01-13T13:47:22;33.42;;;17.73;;
30874;SDS011;17581;43.222;27.924;2023-01-13T13:49:48;28.83;;;15.30;;
30874;SDS011;17581;43.222;27.924;2023-01-13T13:57:19;27.60;;;14.40;;
30874;SDS011;17581;43.222;27.924;2023-01-13T13:59:50;24.38;;;14.10;;
30874;SDS011;17581;43.222;27.924;2023-01-13T14:02:22;22.27;;;14.20;;
30874;SDS011;17581;43.222;27.924;2023-01-13T14:05:05;23.65;;;13.75;;
30874;SDS011;17581;43.222;27.924;2023-01-13T14:07:43;22.75;;;14.32;;
30874;SDS011;17581;43.222;27.924;2023-01-13T14:10:13;27.52;;;15.63;;
30874;SDS011;17581;43.222;27.924;2023-01-13T14:12:44;25.00;;;14.18;;
30874;SDS011;17581;43.222;27.924;2023-01-13T14:15:23;27.30;;;14.45;;
30874;SDS011;17581;43.222;27.924;2023-01-13T14:17:55;26.85;;;14.43;;
30874;SDS011;17581;43.222;27.924;2023-01-13T14:20:21;25.52;;;12.80;;
30874;SDS011;17581;43.222;27.924;2023-01-13T14:22:48;27.23;;;16.70;;
30874;SDS011;17581;43.222;27.924;2023-01-13T14:25:28;27.27;;;15.40;;
30874;SDS011;17581;43.222;27.924;2023-01-13T14:27:56;28.85;;;17.55;;
30874;SDS011;17581;43.222;27.924;2023-01-13T14:30:27;29.70;;;16.25;;
30874;SDS011;17581;43.222;27.924;2023-01-13T14:32:53;36.10;;;18.08;;
30874;SDS011;17581;43.222;27.924;2023-01-13T14:35:20;27.95;;;15.07;;
30874;SDS011;17581;43.222;27.924;2023-01-13T14:37:46;23.23;;;14.68;;
30874;SDS011;17581;43.222;27.924;2023-01-13T14:42:59;25.77;;;14.63;;
30874;SDS011;17581;43.222;27.924;2023-01-13T14:45:35;24.38;;;14.90;;
30874;SDS011;17581;43.222;27.924;2023-01-13T14:48:00;31.42;;;15.65;;
30874;SDS011;17581;43.222;27.924;2023-01-13T14:50:32;26.70;;;16.05;;
30874;SDS011;17581;43.222;27.924;2023-01-13T14:52:59;52.05;;;28.98;;
30874;SDS011;17581;43.222;27.924;2023-01-13T14:57:52;40.67;;;21.40;;
30874;SDS011;17581;43.222;27.924;2023-01-13T15:00:38;40.42;;;21.08;;
30874;SDS011;17581;43.222;27.924;2023-01-13T15:03:04;36.65;;;17.10;;
30874;SDS011;17581;43.222;27.924;2023-01-13T15:05:35;34.58;;;19.08;;
30874;SDS011;17581;43.222;27.924;2023-01-13T15:13:05;36.28;;;17.73;;
30874;SDS011;17581;43.222;27.924;2023-01-13T15:15:32;26.60;;;16.95;;
30874;SDS011;17581;43.222;27.924;2023-01-13T15:20:35;32.95;;;18.35;;
30874;SDS011;17581;43.222;27.924;2023-01-13T15:23:00;37.63;;;17.27;;
30874;SDS011;17581;43.222;27.924;2023-01-13T15:25:30;30.38;;;17.15;;
30874;SDS011;17581;43.222;27.924;2023-01-13T15:27:57;38.50;;;17.45;;
30874;SDS011;17581;43.222;27.924;2023-01-13T15:30:23;40.08;;;23.27;;
30874;SDS011;17581;43.222;27.924;2023-01-13T15:32:50;40.72;;;20.85;;
30874;SDS011;17581;43.222;27.924;2023-01-13T15:35:17;33.30;;;17.70;;
30874;SDS011;17581;43.222;27.924;2023-01-13T15:37:44;28.80;;;16.25;;
30874;SDS011;17581;43.222;27.924;2023-01-13T15:40:12;35.67;;;19.08;;
30874;SDS011;17581;43.222;27.924;2023-01-13T15:42:40;30.50;;;17.25;;
30874;SDS011;17581;43.222;27.924;2023-01-13T15:45:24;34.65;;;17.70;;
30874;SDS011;17581;43.222;27.924;2023-01-13T15:48:09;33.35;;;19.25;;
30874;SDS011;17581;43.222;27.924;2023-01-13T15:50:35;38.15;;;21.02;;
30874;SDS011;17581;43.222;27.924;2023-01-13T15:53:00;49.25;;;24.85;;
30874;SDS011;17581;43.222;27.924;2023-01-13T15:55:27;37.50;;;21.52;;
30874;SDS011;17581;43.222;27.924;2023-01-13T15:57:53;36.55;;;22.70;;
30874;SDS011;17581;43.222;27.924;2023-01-13T16:00:19;36.60;;;19.95;;
30874;SDS011;17581;43.222;27.924;2023-01-13T16:02:46;39.67;;;20.73;;
30874;SDS011;17581;43.222;27.924;2023-01-13T16:05:12;48.85;;;23.20;;
30874;SDS011;17581;43.222;27.924;2023-01-13T16:07:38;41.22;;;21.30;;
30874;SDS011;17581;43.222;27.924;2023-01-13T16:10:04;36.83;;;20.17;;
30874;SDS011;17581;43.222;27.924;2023-01-13T16:12:31;44.97;;;22.30;;
30874;SDS011;17581;43.222;27.924;2023-01-13T16:15:00;39.08;;;21.90;;
30874;SDS011;17581;43.222;27.924;2023-01-13T16:17:29;39.77;;;22.47;;
30874;SDS011;17581;43.222;27.924;2023-01-13T16:19:55;43.03;;;25.60;;
30874;SDS011;17581;43.222;27.924;2023-01-13T16:22:41;41.47;;;23.20;;
30874;SDS011;17581;43.222;27.924;2023-01-13T16:25:11;41.30;;;23.92;;
30874;SDS011;17581;43.222;27.924;2023-01-13T16:27:40;50.75;;;25.45;;
30874;SDS011;17581;43.222;27.924;2023-01-13T16:30:06;46.03;;;25.85;;
30874;SDS011;17581;43.222;27.924;2023-01-13T16:32:42;40.50;;;25.13;;
30874;SDS011;17581;43.222;27.924;2023-01-13T16:35:07;35.80;;;22.48;;
30874;SDS011;17581;43.222;27.924;2023-01-13T16:37:33;40.10;;;24.05;;
30874;SDS011;17581;43.222;27.924;2023-01-13T16:39:59;38.20;;;22.27;;
30874;SDS011;17581;43.222;27.924;2023-01-13T16:42:25;43.60;;;26.83;;
30874;SDS011;17581;43.222;27.924;2023-01-13T16:44:50;50.40;;;27.05;;
30874;SDS011;17581;43.222;27.924;2023-01-13T16:47:16;36.58;;;22.30;;
30874;SDS011;17581;43.222;27.924;2023-01-13T16:49:43;47.63;;;24.83;;
30874;SDS011;17581;43.222;27.924;2023-01-13T16:52:09;52.83;;;26.60;;
30874;SDS011;17581;43.222;27.924;2023-01-13T16:54:34;40.55;;;23.10;;
30874;SDS011;17581;43.222;27.924;2023-01-13T16:57:00;48.03;;;25.05;;
30874;SDS011;17581;43.222;27.924;2023-01-13T16:59:25;45.03;;;24.70;;
30874;SDS011;17581;43.222;27.924;2023-01-13T17:01:51;47.17;;;24.55;;
30874;SDS011;17581;43.222;27.924;2023-01-13T17:04:18;50.67;;;28.10;;
30874;SDS011;17581;43.222;27.924;2023-01-13T17:09:22;51.58;;;26.95;;
30874;SDS011;17581;43.222;27.924;2023-01-13T17:11:49;45.42;;;27.20;;
30874;SDS011;17581;43.222;27.924;2023-01-13T17:14:14;47.63;;;24.35;;